sensor_id;sensor_type;location;lat;lon;timestamp;pressure;altitude;pressure_sealevel;temperature;humidity
12219;BME280;6172;42.646;23.344;2023-05-23T00:00:56;94551.16;;;9.87;100.00
12219;BME280;6172;42.646;23.344;2023-05-23T00:03:23;94546.13;;;9.86;100.00
12219;BME280;6172;42.646;23.344;2023-05-23T00:05:50;94543.69;;;9.95;100.00
12219;BME280;6172;42.646;23.344;2023-05-23T00:08:18;94533.47;;;10.02;100.00
12219;BME280;6172;42.646;23.344;2023-05-23T00:10:45;94535.00;;;10.03;100.00
12219;BME280;6172;42.646;23.344;2023-05-23T00:13:11;94531.75;;;10.12;100.00
12219;BME280;6172;42.646;23.344;2023-05-23T00:15:41;94527.50;;;10.11;100.00
12219;BME280;6172;42.646;23.344;2023-05-23T00:18:09;94532.13;;;10.14;100.00
12219;BME280;6172;42.646;23.344;2023-05-23T00:20:37;94529.56;;;10.03;100.00
12219;BME280;6172;42.646;23.344;2023-05-23T00:23:06;94524.31;;;9.89;100.00
12219;BME280;6172;42.646;23.344;2023-05-23T00:25:34;94527.41;;;9.91;100.00
12219;BME280;6172;42.646;23.344;2023-05-23T00:28:01;94527.13;;;9.59;100.00
12219;BME280;6172;42.646;23.344;2023-05-23T00:30:29;94528.66;;;9.60;100.00
12219;BME280;6172;42.646;23.344;2023-05-23T00:32:58;94526.91;;;9.73;100.00
12219;BME280;6172;42.646;23.344;2023-05-23T00:35:26;94522.84;;;9.85;100.00
12219;BME280;6172;42.646;23.344;2023-05-23T00:37:53;94512.50;;;9.73;100.00
12219;BME280;6172;42.646;23.344;2023-05-23T00:40:20;94521.25;;;9.61;100.00
12219;BME280;6172;42.646;23.344;2023-05-23T00:42:48;94516.94;;;9.63;100.00
12219;BME280;6172;42.646;23.344;2023-05-23T00:45:15;94509.59;;;9.60;100.00
12219;BME280;6172;42.646;23.344;2023-05-23T00:47:44;94516.31;;;9.79;100.00
12219;BME280;6172;42.646;23.344;2023-05-23T00:50:13;94513.44;;;9.89;100.00
12219;BME280;6172;42.646;23.344;2023-05-23T00:52:41;94519.69;;;9.86;100.00
12219;BME280;6172;42.646;23.344;2023-05-23T00:55:09;94520.41;;;9.94;100.00
12219;BME280;6172;42.646;23.344;2023-05-23T00:57:35;94515.03;;;9.87;100.00
12219;BME280;6172;42.646;23.344;2023-05-23T01:00:05;94516.47;;;9.95;100.00
12219;BME280;6172;42.646;23.344;2023-05-23T01:02:38;94506.41;;;9.92;100.00
12219;BME280;6172;42.646;23.344;2023-05-23T01:05:08;94507.13;;;9.96;100.00
12219;BME280;6172;42.646;23.344;2023-05-23T01:07:37;94513.84;;;9.88;100.00
12219;BME280;6172;42.646;23.344;2023-05-23T01:10:04;94522.47;;;9.83;100.00
12219;BME280;6172;42.646;23.344;2023-05-23T01:12:37;94527.22;;;9.52;100.00
12219;BME280;6172;42.646;23.344;2023-05-23T01:15:09;94521.50;;;9.43;100.00
12219;BME280;6172;42.646;23.344;2023-05-23T01:17:43;94519.19;;;9.42;100.00
12219;BME280;6172;42.646;23.344;2023-05-23T01:20:15;94525.31;;;9.49;100.00
12219;BME280;6172;42.646;23.344;2023-05-23T01:26:08;94518.56;;;9.57;100.00
12219;BME280;6172;42.646;23.344;2023-05-23T01:28:45;94518.56;;;9.57;100.00
12219;BME280;6172;42.646;23.344;2023-05-23T01:31:14;94525.25;;;9.53;100.00
12219;BME280;6172;42.646;23.344;2023-05-23T01:33:42;94523.34;;;9.50;100.00
12219;BME280;6172;42.646;23.344;2023-05-23T01:36:12;94527.66;;;9.47;100.00
12219;BME280;6172;42.646;23.344;2023-05-23T01:38:39;94518.72;;;9.47;100.00
12219;BME280;6172;42.646;23.344;2023-05-23T01:41:07;94530.84;;;9.42;100.00
12219;BME280;6172;42.646;23.344;2023-05-23T01:43:34;94526.66;;;9.38;100.00
12219;BME280;6172;42.646;23.344;2023-05-23T01:46:03;94514.06;;;9.47;100.00
12219;BME280;6172;42.646;23.344;2023-05-23T01:48:33;94513.50;;;9.33;100.00
12219;BME280;6172;42.646;23.344;2023-05-23T01:51:01;94515.53;;;9.25;100.00
12219;BME280;6172;42.646;23.344;2023-05-23T01:53:29;94527.66;;;9.21;100.00
12219;BME280;6172;42.646;23.344;2023-05-23T01:55:56;94515.41;;;9.06;100.00
12219;BME280;6172;42.646;23.344;2023-05-23T01:58:27;94515.91;;;8.97;100.00
12219;BME280;6172;42.646;23.344;2023-05-23T02:00:55;94521.03;;;8.92;100.00
12219;BME280;6172;42.646;23.344;2023-05-23T02:03:23;94519.56;;;8.84;100.00
12219;BME280;6172;42.646;23.344;2023-05-23T02:05:50;94515.50;;;8.99;100.00
12219;BME280;6172;42.646;23.344;2023-05-23T02:08:17;94519.03;;;8.96;100.00
12219;BME280;6172;42.646;23.344;2023-05-23T02:10:44;94514.47;;;8.52;100.00
12219;BME280;6172;42.646;23.344;2023-05-23T02:13:10;94515.28;;;8.49;100.00
12219;BME280;6172;42.646;23.344;2023-05-23T02:15:37;94528.59;;;8.74;100.00
12219;BME280;6172;42.646;23.344;2023-05-23T02:18:05;94525.88;;;8.74;100.00
12219;BME280;6172;42.646;23.344;2023-05-23T02:20:33;94518.81;;;8.80;100.00
12219;BME280;6172;42.646;23.344;2023-05-23T02:23:00;94532.31;;;8.90;100.00
12219;BME280;6172;42.646;23.344;2023-05-23T02:25:27;94518.34;;;8.88;100.00
12219;BME280;6172;42.646;23.344;2023-05-23T02:27:54;94510.97;;;8.89;100.00
12219;BME280;6172;42.646;23.344;2023-05-23T02:30:20;94514.88;;;8.88;100.00
12219;BME280;6172;42.646;23.344;2023-05-23T02:32:47;94519.47;;;8.91;100.00
12219;BME280;6172;42.646;23.344;2023-05-23T02:35:14;94518.88;;;8.76;100.00
12219;BME280;6172;42.646;23.344;2023-05-23T02:37:42;94515.69;;;8.85;100.00
12219;BME280;6172;42.646;23.344;2023-05-23T02:40:09;94508.53;;;8.98;100.00
12219;BME280;6172;42.646;23.344;2023-05-23T02:42:36;94515.41;;;9.06;100.00
12219;BME280;6172;42.646;23.344;2023-05-23T02:45:04;94504.44;;;9.13;100.00
12219;BME280;6172;42.646;23.344;2023-05-23T02:47:31;94500.13;;;9.15;100.00
12219;BME280;6172;42.646;23.344;2023-05-23T02:49:57;94499.91;;;8.73;100.00
12219;BME280;6172;42.646;23.344;2023-05-23T02:52:25;94510.78;;;8.69;100.00
12219;BME280;6172;42.646;23.344;2023-05-23T02:54:53;94496.78;;;8.74;100.00
12219;BME280;6172;42.646;23.344;2023-05-23T02:57:20;94501.81;;;8.72;100.00
12219;BME280;6172;42.646;23.344;2023-05-23T02:59:46;94508.19;;;8.92;100.00
12219;BME280;6172;42.646;23.344;2023-05-23T03:02:13;94498.38;;;8.68;100.00
12219;BME280;6172;42.646;23.344;2023-05-23T03:04:40;94498.09;;;8.59;100.00
12219;BME280;6172;42.646;23.344;2023-05-23T03:07:07;94502.69;;;8.66;100.00
12219;BME280;6172;42.646;23.344;2023-05-23T03:09:35;94505.69;;;8.75;100.00
12219;BME280;6172;42.646;23.344;2023-05-23T03:12:04;94501.09;;;8.68;100.00
12219;BME280;6172;42.646;23.344;2023-05-23T03:14:31;94504.69;;;8.62;100.00
12219;BME280;6172;42.646;23.344;2023-05-23T03:17:16;94503.72;;;8.79;100.00
12219;BME280;6172;42.646;23.344;2023-05-23T03:19:43;94499.72;;;8.87;100.00
12219;BME280;6172;42.646;23.344;2023-05-23T03:22:10;94504.81;;;8.85;100.00
12219;BME280;6172;42.646;23.344;2023-05-23T03:24:37;94500.13;;;8.85;100.00
12219;BME280;6172;42.646;23.344;2023-05-23T03:27:05;94508.41;;;8.75;100.00
12219;BME280;6172;42.646;23.344;2023-05-23T03:29:32;94514.97;;;8.77;100.00
12219;BME280;6172;42.646;23.344;2023-05-23T03:31:59;94516.84;;;8.84;100.00
12219;BME280;6172;42.646;23.344;2023-05-23T03:34:25;94522.19;;;8.91;100.00
12219;BME280;6172;42.646;23.344;2023-05-23T03:36:52;94521.84;;;8.89;100.00
12219;BME280;6172;42.646;23.344;2023-05-23T03:39:19;94520.25;;;8.91;100.00
12219;BME280;6172;42.646;23.344;2023-05-23T03:41:47;94525.28;;;8.93;100.00
12219;BME280;6172;42.646;23.344;2023-05-23T03:44:18;94528.16;;;8.79;100.00
12219;BME280;6172;42.646;23.344;2023-05-23T03:46:45;94537.16;;;8.72;100.00
12219;BME280;6172;42.646;23.344;2023-05-23T03:49:12;94537.50;;;8.78;100.00
12219;BME280;6172;42.646;23.344;2023-05-23T03:51:39;94533.63;;;8.75;100.00
12219;BME280;6172;42.646;23.344;2023-05-23T03:54:06;94542.47;;;8.83;100.00
12219;BME280;6172;42.646;23.344;2023-05-23T03:56:33;94537.75;;;8.87;100.00
12219;BME280;6172;42.646;23.344;2023-05-23T03:59:00;94542.75;;;8.92;100.00
12219;BME280;6172;42.646;23.344;2023-05-23T04:01:28;94548.53;;;8.97;100.00
12219;BME280;6172;42.646;23.344;2023-05-23T04:03:55;94543.81;;;9.01;100.00
12219;BME280;6172;42.646;23.344;2023-05-23T04:06:24;94547.50;;;9.18;100.00
12219;BME280;6172;42.646;23.344;2023-05-23T04:08:54;94540.41;;;9.24;100.00
12219;BME280;6172;42.646;23.344;2023-05-23T04:11:21;94538.28;;;9.38;100.00
12219;BME280;6172;42.646;23.344;2023-05-23T04:13:48;94542.88;;;9.45;100.00
12219;BME280;6172;42.646;23.344;2023-05-23T04:16:16;94546.00;;;9.70;100.00
12219;BME280;6172;42.646;23.344;2023-05-23T04:18:45;94540.53;;;9.70;100.00
12219;BME280;6172;42.646;23.344;2023-05-23T04:21:13;94543.06;;;9.84;100.00
12219;BME280;6172;42.646;23.344;2023-05-23T04:23:39;94543.13;;;9.80;100.00
12219;BME280;6172;42.646;23.344;2023-05-23T04:26:06;94542.44;;;9.73;100.00
12219;BME280;6172;42.646;23.344;2023-05-23T04:28:34;94543.50;;;9.82;100.00
12219;BME280;6172;42.646;23.344;2023-05-23T04:31:02;94554.41;;;9.79;100.00
12219;BME280;6172;42.646;23.344;2023-05-23T04:33:29;94529.66;;;9.70;100.00
12219;BME280;6172;42.646;23.344;2023-05-23T04:35:57;94544.97;;;9.87;100.00
12219;BME280;6172;42.646;23.344;2023-05-23T04:38:24;94555.09;;;9.86;100.00
12219;BME280;6172;42.646;23.344;2023-05-23T04:40:52;94549.44;;;10.00;100.00
12219;BME280;6172;42.646;23.344;2023-05-23T04:43:19;94554.47;;;10.02;100.00
12219;BME280;6172;42.646;23.344;2023-05-23T04:45:46;94554.06;;;10.03;100.00
12219;BME280;6172;42.646;23.344;2023-05-23T04:48:15;94545.94;;;10.00;100.00
12219;BME280;6172;42.646;23.344;2023-05-23T04:50:45;94542.75;;;10.05;100.00
12219;BME280;6172;42.646;23.344;2023-05-23T04:53:14;94561.88;;;10.24;100.00
12219;BME280;6172;42.646;23.344;2023-05-23T04:55:41;94560.47;;;10.16;100.00
12219;BME280;6172;42.646;23.344;2023-05-23T04:58:08;94560.94;;;10.11;100.00
12219;BME280;6172;42.646;23.344;2023-05-23T05:00:35;94567.69;;;10.03;100.00
12219;BME280;6172;42.646;23.344;2023-05-23T05:03:02;94563.72;;;10.08;100.00
12219;BME280;6172;42.646;23.344;2023-05-23T05:05:28;94564.84;;;10.33;100.00
12219;BME280;6172;42.646;23.344;2023-05-23T05:07:55;94564.28;;;10.46;100.00
12219;BME280;6172;42.646;23.344;2023-05-23T05:10:24;94567.94;;;10.12;100.00
12219;BME280;6172;42.646;23.344;2023-05-23T05:12:50;94573.59;;;9.68;100.00
12219;BME280;6172;42.646;23.344;2023-05-23T05:15:18;94576.44;;;9.61;100.00
12219;BME280;6172;42.646;23.344;2023-05-23T05:17:44;94576.13;;;9.56;100.00
12219;BME280;6172;42.646;23.344;2023-05-23T05:20:11;94578.06;;;9.55;100.00
12219;BME280;6172;42.646;23.344;2023-05-23T05:22:39;94578.50;;;9.54;100.00
12219;BME280;6172;42.646;23.344;2023-05-23T05:25:08;94583.56;;;9.52;100.00
12219;BME280;6172;42.646;23.344;2023-05-23T05:27:38;94580.44;;;9.80;100.00
12219;BME280;6172;42.646;23.344;2023-05-23T05:30:06;94579.94;;;9.62;100.00
12219;BME280;6172;42.646;23.344;2023-05-23T05:32:34;94589.09;;;9.75;100.00
12219;BME280;6172;42.646;23.344;2023-05-23T05:35:00;94596.13;;;9.99;100.00
12219;BME280;6172;42.646;23.344;2023-05-23T05:37:28;94593.28;;;9.79;100.00
12219;BME280;6172;42.646;23.344;2023-05-23T05:39:55;94592.34;;;9.93;100.00
12219;BME280;6172;42.646;23.344;2023-05-23T05:42:21;94597.09;;;10.12;100.00
12219;BME280;6172;42.646;23.344;2023-05-23T05:44:50;94580.50;;;10.29;100.00
12219;BME280;6172;42.646;23.344;2023-05-23T05:47:16;94595.91;;;10.39;100.00
12219;BME280;6172;42.646;23.344;2023-05-23T05:49:43;94589.44;;;10.30;100.00
12219;BME280;6172;42.646;23.344;2023-05-23T05:52:10;94592.94;;;10.54;100.00
12219;BME280;6172;42.646;23.344;2023-05-23T05:54:37;94587.81;;;10.79;100.00
12219;BME280;6172;42.646;23.344;2023-05-23T05:57:04;94594.03;;;10.56;100.00
12219;BME280;6172;42.646;23.344;2023-05-23T05:59:31;94589.19;;;10.67;100.00
12219;BME280;6172;42.646;23.344;2023-05-23T06:01:59;94583.47;;;10.81;100.00
12219;BME280;6172;42.646;23.344;2023-05-23T06:04:26;94578.59;;;10.92;100.00
12219;BME280;6172;42.646;23.344;2023-05-23T06:06:53;94567.16;;;11.20;100.00
12219;BME280;6172;42.646;23.344;2023-05-23T06:09:20;94573.47;;;11.56;100.00
12219;BME280;6172;42.646;23.344;2023-05-23T06:11:47;94561.13;;;11.48;100.00
12219;BME280;6172;42.646;23.344;2023-05-23T06:14:14;94554.06;;;11.86;100.00
12219;BME280;6172;42.646;23.344;2023-05-23T06:16:40;94556.63;;;11.93;100.00
12219;BME280;6172;42.646;23.344;2023-05-23T06:19:09;94556.72;;;12.06;100.00
12219;BME280;6172;42.646;23.344;2023-05-23T06:21:35;94548.03;;;12.11;100.00
12219;BME280;6172;42.646;23.344;2023-05-23T06:24:02;94549.13;;;12.61;100.00
12219;BME280;6172;42.646;23.344;2023-05-23T06:26:29;94539.22;;;13.25;100.00
12219;BME280;6172;42.646;23.344;2023-05-23T06:28:56;94525.19;;;14.01;100.00
12219;BME280;6172;42.646;23.344;2023-05-23T06:31:23;94527.34;;;15.12;100.00
12219;BME280;6172;42.646;23.344;2023-05-23T06:33:50;94512.59;;;15.83;100.00
12219;BME280;6172;42.646;23.344;2023-05-23T06:36:18;94508.88;;;17.10;100.00
12219;BME280;6172;42.646;23.344;2023-05-23T06:38:45;94499.41;;;18.63;100.00
12219;BME280;6172;42.646;23.344;2023-05-23T06:41:13;94494.03;;;19.60;100.00
12219;BME280;6172;42.646;23.344;2023-05-23T06:43:39;94499.56;;;19.74;100.00
12219;BME280;6172;42.646;23.344;2023-05-23T06:46:06;94486.66;;;21.04;93.40
12219;BME280;6172;42.646;23.344;2023-05-23T06:48:33;94488.25;;;21.10;84.99
12219;BME280;6172;42.646;23.344;2023-05-23T06:51:00;94490.97;;;21.05;94.01
12219;BME280;6172;42.646;23.344;2023-05-23T06:53:28;94488.50;;;21.78;78.07
12219;BME280;6172;42.646;23.344;2023-05-23T06:55:55;94479.09;;;21.24;86.94
12219;BME280;6172;42.646;23.344;2023-05-23T06:58:22;94482.91;;;21.72;79.03
12219;BME280;6172;42.646;23.344;2023-05-23T07:00:51;94477.50;;;22.20;75.60
12219;BME280;6172;42.646;23.344;2023-05-23T07:03:18;94475.81;;;21.71;76.34
12219;BME280;6172;42.646;23.344;2023-05-23T07:05:44;94474.03;;;23.15;67.95
12219;BME280;6172;42.646;23.344;2023-05-23T07:08:11;94464.72;;;22.03;70.99
12219;BME280;6172;42.646;23.344;2023-05-23T07:10:39;94467.44;;;21.20;77.78
12219;BME280;6172;42.646;23.344;2023-05-23T07:13:06;94469.22;;;19.94;87.57
12219;BME280;6172;42.646;23.344;2023-05-23T07:15:33;94466.47;;;19.65;100.00
12219;BME280;6172;42.646;23.344;2023-05-23T07:18:00;94459.69;;;19.66;94.92
12219;BME280;6172;42.646;23.344;2023-05-23T07:20:27;94454.41;;;20.46;92.99
12219;BME280;6172;42.646;23.344;2023-05-23T07:22:54;94457.19;;;19.97;97.87
12219;BME280;6172;42.646;23.344;2023-05-23T07:25:21;94451.59;;;21.46;87.85
12219;BME280;6172;42.646;23.344;2023-05-23T07:27:50;94444.63;;;22.50;74.41
12219;BME280;6172;42.646;23.344;2023-05-23T07:30:19;94446.31;;;22.84;71.97
12219;BME280;6172;42.646;23.344;2023-05-23T07:32:47;94448.91;;;23.62;65.62
12219;BME280;6172;42.646;23.344;2023-05-23T07:35:16;94437.78;;;23.96;60.58
12219;BME280;6172;42.646;23.344;2023-05-23T07:37:48;94437.19;;;24.58;59.36
12219;BME280;6172;42.646;23.344;2023-05-23T07:40:15;94434.97;;;24.45;57.46
12219;BME280;6172;42.646;23.344;2023-05-23T07:42:42;94439.56;;;22.48;67.18
12219;BME280;6172;42.646;23.344;2023-05-23T07:45:10;94440.66;;;23.15;69.66
12219;BME280;6172;42.646;23.344;2023-05-23T07:47:37;94426.47;;;23.07;66.68
12219;BME280;6172;42.646;23.344;2023-05-23T07:50:06;94430.41;;;24.20;60.63
12219;BME280;6172;42.646;23.344;2023-05-23T07:52:33;94432.44;;;24.03;59.26
12219;BME280;6172;42.646;23.344;2023-05-23T07:54:59;94426.84;;;23.48;61.86
12219;BME280;6172;42.646;23.344;2023-05-23T07:57:26;94419.50;;;23.50;63.57
12219;BME280;6172;42.646;23.344;2023-05-23T07:59:53;94429.16;;;23.99;61.26
12219;BME280;6172;42.646;23.344;2023-05-23T08:02:21;94437.25;;;23.75;63.65
12219;BME280;6172;42.646;23.344;2023-05-23T08:04:51;94431.81;;;23.16;65.09
12219;BME280;6172;42.646;23.344;2023-05-23T08:07:18;94420.31;;;22.87;64.23
12219;BME280;6172;42.646;23.344;2023-05-23T08:09:46;94422.06;;;23.65;64.87
12219;BME280;6172;42.646;23.344;2023-05-23T08:12:16;94427.41;;;23.85;65.55
12219;BME280;6172;42.646;23.344;2023-05-23T08:14:43;94423.09;;;23.62;63.05
12219;BME280;6172;42.646;23.344;2023-05-23T08:17:11;94414.69;;;21.92;74.05
12219;BME280;6172;42.646;23.344;2023-05-23T08:19:39;94420.28;;;22.28;77.84
12219;BME280;6172;42.646;23.344;2023-05-23T08:22:06;94416.72;;;23.39;71.31
12219;BME280;6172;42.646;23.344;2023-05-23T08:24:33;94422.50;;;23.41;67.31
12219;BME280;6172;42.646;23.344;2023-05-23T08:26:59;94425.09;;;22.02;75.97
12219;BME280;6172;42.646;23.344;2023-05-23T08:29:27;94429.84;;;21.39;78.12
12219;BME280;6172;42.646;23.344;2023-05-23T08:31:54;94427.47;;;21.78;81.47
12219;BME280;6172;42.646;23.344;2023-05-23T08:34:21;94422.66;;;21.78;76.88
12219;BME280;6172;42.646;23.344;2023-05-23T08:36:49;94418.28;;;22.34;70.90
12219;BME280;6172;42.646;23.344;2023-05-23T08:39:17;94414.91;;;22.61;73.12
12219;BME280;6172;42.646;23.344;2023-05-23T08:41:44;94418.78;;;22.80;79.56
12219;BME280;6172;42.646;23.344;2023-05-23T08:44:12;94407.59;;;23.50;70.44
12219;BME280;6172;42.646;23.344;2023-05-23T08:46:43;94406.91;;;23.66;61.48
12219;BME280;6172;42.646;23.344;2023-05-23T08:49:12;94411.31;;;22.13;74.91
12219;BME280;6172;42.646;23.344;2023-05-23T08:51:42;94409.53;;;22.47;70.49
12219;BME280;6172;42.646;23.344;2023-05-23T08:54:11;94404.91;;;22.91;73.37
12219;BME280;6172;42.646;23.344;2023-05-23T08:56:38;94409.38;;;22.72;68.43
12219;BME280;6172;42.646;23.344;2023-05-23T08:59:08;94412.53;;;22.07;74.66
12219;BME280;6172;42.646;23.344;2023-05-23T09:01:35;94406.63;;;21.37;76.40
12219;BME280;6172;42.646;23.344;2023-05-23T09:04:05;94407.19;;;20.75;79.86
12219;BME280;6172;42.646;23.344;2023-05-23T09:06:34;94409.19;;;20.89;73.66
12219;BME280;6172;42.646;23.344;2023-05-23T09:09:01;94394.63;;;21.20;74.01
12219;BME280;6172;42.646;23.344;2023-05-23T09:11:30;94411.53;;;20.96;70.42
12219;BME280;6172;42.646;23.344;2023-05-23T09:13:59;94404.09;;;21.59;60.18
12219;BME280;6172;42.646;23.344;2023-05-23T09:16:31;94402.31;;;20.85;80.26
12219;BME280;6172;42.646;23.344;2023-05-23T09:18:58;94403.38;;;21.64;67.15
12219;BME280;6172;42.646;23.344;2023-05-23T09:21:26;94409.00;;;20.78;62.32
12219;BME280;6172;42.646;23.344;2023-05-23T09:23:53;94401.97;;;20.97;63.99
12219;BME280;6172;42.646;23.344;2023-05-23T09:26:21;94415.03;;;22.05;52.62
12219;BME280;6172;42.646;23.344;2023-05-23T09:28:50;94398.94;;;22.51;46.75
12219;BME280;6172;42.646;23.344;2023-05-23T09:31:17;94397.97;;;22.17;48.24
12219;BME280;6172;42.646;23.344;2023-05-23T09:33:45;94404.38;;;22.82;49.74
12219;BME280;6172;42.646;23.344;2023-05-23T09:36:12;94400.22;;;23.19;47.72
12219;BME280;6172;42.646;23.344;2023-05-23T09:38:41;94399.13;;;21.68;49.86
12219;BME280;6172;42.646;23.344;2023-05-23T09:41:08;94399.13;;;22.00;48.47
12219;BME280;6172;42.646;23.344;2023-05-23T09:43:37;94399.09;;;21.94;49.02
12219;BME280;6172;42.646;23.344;2023-05-23T09:46:08;94388.16;;;21.28;51.20
12219;BME280;6172;42.646;23.344;2023-05-23T09:48:35;94394.22;;;21.52;50.97
12219;BME280;6172;42.646;23.344;2023-05-23T09:51:03;94387.63;;;21.24;51.07
12219;BME280;6172;42.646;23.344;2023-05-23T09:53:31;94388.72;;;21.95;49.33
12219;BME280;6172;42.646;23.344;2023-05-23T09:55:58;94381.25;;;21.44;45.75
12219;BME280;6172;42.646;23.344;2023-05-23T09:58:28;94379.94;;;22.02;46.20
12219;BME280;6172;42.646;23.344;2023-05-23T10:00:56;94375.53;;;22.74;43.13
12219;BME280;6172;42.646;23.344;2023-05-23T10:03:30;94386.41;;;23.69;39.37
12219;BME280;6172;42.646;23.344;2023-05-23T10:06:02;94386.38;;;24.24;38.84
12219;BME280;6172;42.646;23.344;2023-05-23T10:08:35;94371.94;;;24.31;38.60
12219;BME280;6172;42.646;23.344;2023-05-23T10:14:16;94374.78;;;25.75;36.93
12219;BME280;6172;42.646;23.344;2023-05-23T10:16:52;94366.50;;;25.93;36.07
12219;BME280;6172;42.646;23.344;2023-05-23T10:19:24;94373.41;;;25.57;36.99
12219;BME280;6172;42.646;23.344;2023-05-23T10:21:57;94370.41;;;24.41;36.53
12219;BME280;6172;42.646;23.344;2023-05-23T10:24:25;94370.97;;;23.90;37.33
12219;BME280;6172;42.646;23.344;2023-05-23T10:26:52;94353.78;;;23.75;38.48
12219;BME280;6172;42.646;23.344;2023-05-23T10:29:20;94359.56;;;23.93;38.28
12219;BME280;6172;42.646;23.344;2023-05-23T10:31:48;94363.91;;;22.64;41.36
12219;BME280;6172;42.646;23.344;2023-05-23T10:34:22;94349.72;;;23.98;40.32
12219;BME280;6172;42.646;23.344;2023-05-23T10:36:58;94366.38;;;23.48;37.11
12219;BME280;6172;42.646;23.344;2023-05-23T10:39:36;94355.72;;;23.08;38.82
12219;BME280;6172;42.646;23.344;2023-05-23T10:42:10;94358.00;;;23.04;39.34
12219;BME280;6172;42.646;23.344;2023-05-23T10:44:39;94348.41;;;22.41;37.89
12219;BME280;6172;42.646;23.344;2023-05-23T10:47:05;94356.03;;;22.10;39.81
12219;BME280;6172;42.646;23.344;2023-05-23T10:49:40;94352.31;;;21.50;40.48
12219;BME280;6172;42.646;23.344;2023-05-23T10:52:09;94344.25;;;21.84;39.86
12219;BME280;6172;42.646;23.344;2023-05-23T10:54:36;94335.00;;;21.98;39.86
12219;BME280;6172;42.646;23.344;2023-05-23T10:57:09;94350.22;;;22.50;39.93
12219;BME280;6172;42.646;23.344;2023-05-23T10:59:37;94344.19;;;22.68;40.08
12219;BME280;6172;42.646;23.344;2023-05-23T11:02:12;94347.31;;;22.28;39.97
12219;BME280;6172;42.646;23.344;2023-05-23T11:04:40;94342.69;;;22.14;39.49
12219;BME280;6172;42.646;23.344;2023-05-23T11:07:30;94333.75;;;21.31;39.06
12219;BME280;6172;42.646;23.344;2023-05-23T11:10:07;94340.94;;;21.48;40.80
12219;BME280;6172;42.646;23.344;2023-05-23T11:12:36;94333.19;;;21.89;39.82
12219;BME280;6172;42.646;23.344;2023-05-23T11:15:18;94331.34;;;21.44;40.08
12219;BME280;6172;42.646;23.344;2023-05-23T11:17:50;94330.19;;;21.56;41.66
12219;BME280;6172;42.646;23.344;2023-05-23T11:20:18;94321.00;;;22.18;40.68
12219;BME280;6172;42.646;23.344;2023-05-23T11:22:54;94322.16;;;22.48;38.91
12219;BME280;6172;42.646;23.344;2023-05-23T11:25:38;94333.97;;;21.90;39.45
12219;BME280;6172;42.646;23.344;2023-05-23T11:28:06;94321.13;;;21.92;39.52
12219;BME280;6172;42.646;23.344;2023-05-23T11:30:34;94313.84;;;22.48;38.49
12219;BME280;6172;42.646;23.344;2023-05-23T11:33:05;94317.88;;;22.52;38.74
12219;BME280;6172;42.646;23.344;2023-05-23T11:35:34;94323.09;;;22.98;38.25
12219;BME280;6172;42.646;23.344;2023-05-23T11:38:03;94315.19;;;22.74;37.71
12219;BME280;6172;42.646;23.344;2023-05-23T11:40:32;94322.47;;;22.61;36.64
12219;BME280;6172;42.646;23.344;2023-05-23T11:43:00;94308.16;;;22.84;35.86
12219;BME280;6172;42.646;23.344;2023-05-23T11:45:28;94305.63;;;22.92;37.02
12219;BME280;6172;42.646;23.344;2023-05-23T11:47:56;94302.78;;;22.59;37.90
12219;BME280;6172;42.646;23.344;2023-05-23T11:50:22;94308.22;;;22.26;38.41
12219;BME280;6172;42.646;23.344;2023-05-23T11:52:50;94305.91;;;21.82;37.66
12219;BME280;6172;42.646;23.344;2023-05-23T11:55:18;94302.78;;;21.63;37.31
12219;BME280;6172;42.646;23.344;2023-05-23T11:57:45;94300.03;;;22.11;37.42
12219;BME280;6172;42.646;23.344;2023-05-23T12:00:13;94297.41;;;22.39;36.57
12219;BME280;6172;42.646;23.344;2023-05-23T12:02:42;94294.53;;;22.22;38.23
12219;BME280;6172;42.646;23.344;2023-05-23T12:05:10;94293.47;;;22.73;37.25
12219;BME280;6172;42.646;23.344;2023-05-23T12:07:39;94296.88;;;22.35;36.90
12219;BME280;6172;42.646;23.344;2023-05-23T12:10:07;94293.91;;;22.49;37.32
12219;BME280;6172;42.646;23.344;2023-05-23T12:12:36;94290.00;;;23.05;36.66
12219;BME280;6172;42.646;23.344;2023-05-23T12:15:04;94283.47;;;23.36;37.30
12219;BME280;6172;42.646;23.344;2023-05-23T12:17:31;94282.09;;;22.71;35.83
12219;BME280;6172;42.646;23.344;2023-05-23T12:19:58;94280.19;;;22.24;37.17
12219;BME280;6172;42.646;23.344;2023-05-23T12:22:27;94278.91;;;22.25;37.37
12219;BME280;6172;42.646;23.344;2023-05-23T12:24:54;94283.03;;;22.40;37.65
12219;BME280;6172;42.646;23.344;2023-05-23T12:27:26;94280.16;;;21.76;39.11
12219;BME280;6172;42.646;23.344;2023-05-23T12:30:07;94262.22;;;21.71;39.04
12219;BME280;6172;42.646;23.344;2023-05-23T12:32:38;94270.94;;;21.96;39.24
12219;BME280;6172;42.646;23.344;2023-05-23T12:35:05;94261.06;;;21.89;39.51
12219;BME280;6172;42.646;23.344;2023-05-23T12:37:32;94256.16;;;21.67;38.96
12219;BME280;6172;42.646;23.344;2023-05-23T12:40:09;94249.09;;;21.66;38.49
12219;BME280;6172;42.646;23.344;2023-05-23T12:42:44;94253.66;;;21.69;39.48
12219;BME280;6172;42.646;23.344;2023-05-23T12:45:14;94251.13;;;21.71;38.95
12219;BME280;6172;42.646;23.344;2023-05-23T12:47:41;94252.19;;;21.43;39.31
12219;BME280;6172;42.646;23.344;2023-05-23T12:50:08;94246.56;;;21.68;39.62
12219;BME280;6172;42.646;23.344;2023-05-23T12:52:35;94252.25;;;21.91;38.52
12219;BME280;6172;42.646;23.344;2023-05-23T12:55:03;94250.53;;;21.99;38.58
12219;BME280;6172;42.646;23.344;2023-05-23T12:57:30;94239.09;;;22.39;37.67
12219;BME280;6172;42.646;23.344;2023-05-23T12:59:56;94241.41;;;22.57;37.10
12219;BME280;6172;42.646;23.344;2023-05-23T13:02:25;94242.19;;;22.68;35.84
12219;BME280;6172;42.646;23.344;2023-05-23T13:04:53;94245.66;;;21.83;36.07
12219;BME280;6172;42.646;23.344;2023-05-23T13:07:21;94238.16;;;22.00;36.96
12219;BME280;6172;42.646;23.344;2023-05-23T13:09:48;94228.59;;;22.12;35.42